Tuesday, May 3, 2016, 4:04 PM EDT

KLNS, Lancaster Airport

Location: Lititz, PA, United States Lat: 40.117
Local Time: 4:04 PM EDT (20:04 GMT) Lon: -76.3
Time Zone: US/Eastern Elev: 403 ft

Show me the last for .
Show Decoded

2016-05-03 14:53 METAR KLNS 031853Z 05005KT 10SM OVC013 14/12 A2981 RMK AO2 SLP093 T01440122 =
2016-05-03 14:49 METAR KLNS 031849Z 04004KT 10SM OVC013 14/12 A2981 RMK AO2 =
2016-05-03 14:16 METAR KLNS 031816Z 00000KT 10SM OVC015 14/12 A2981 RMK AO2 T01440117 =
2016-05-03 13:53 METAR KLNS 031753Z 10004KT 10SM OVC014 14/12 A2981 RMK AO2 SLP093 60001
                 T01390122 10144 20117 56006 =
2016-05-03 13:50 METAR KLNS 031750Z 09005KT 10SM OVC014 14/12 A2981 RMK AO2 =
2016-05-03 13:24 METAR KLNS 031724Z 09005KT 10SM OVC015 14/12 A2980 RMK AO2 T01440117 =
2016-05-03 12:53 METAR KLNS 031653Z 10008KT 10SM OVC010 13/12 A2980 RMK AO2 CIG 008V012 SLP091
                 T01330117 =
2016-05-03 11:53 METAR KLNS 031553Z 06008KT 10SM OVC013 13/12 A2983 RMK AO2 SLP099 T01330122 =
2016-05-03 11:51 METAR KLNS 031551Z 05008KT 10SM FEW007 OVC013 13/12 A2983 RMK AO2 =
2016-05-03 11:37 METAR KLNS 031537Z 05007KT 10SM SCT007 OVC015 13/12 A2982 RMK AO2 T01330122 =
2016-05-03 10:53 METAR KLNS 031453Z 03009KT 4SM BR BKN006 OVC011 12/12 A2983 RMK AO2 CIG 004V010
                 SLP102 60001 T01220117 53005 =
2016-05-03 10:37 METAR KLNS 031437Z 03008KT 3SM BR BKN007 OVC011 12/12 A2982 RMK AO2 CIG 004V010
                 T01220117 =
2016-05-03 09:53 METAR KLNS 031353Z 03008KT 2SM BR OVC007 12/12 A2982 RMK AO2 CIG 005V010 SLP096
                 T01220117 =
2016-05-03 08:53 METAR KLNS 031253Z 03009KT 2 1/2SM BR BKN005 OVC009 12/12 A2981 RMK AO2 RAE22
                 CIG 003V008 SLP093 P0001 T01220117 =
2016-05-03 08:18 METAR KLNS 031218Z 04010KT 2 1/2SM -RA BR OVC007 12/12 A2982 RMK AO2 CIG 004V010
                 P0001 T01220117 =
2016-05-03 07:53 METAR KLNS 031153Z 03008KT 1 1/2SM -RA BR OVC006 12/12 A2982 RMK AO2 RAE17B43
                 SLP097 P0000 60012 70213 T01220117 10139 20122 52003 =
2016-05-03 07:41 METAR KLNS 031141Z 03006KT 2SM BR OVC006 13/12 A2981 RMK AO2 RAE17 CIG 005V009
                 P0000 T01280117 =
2016-05-03 07:24 METAR KLNS 031124Z 03007KT 4SM BR OVC008 13/12 A2982 RMK AO2 RAE17 CIG 005V011
                 P0000 T01280122 =
2016-05-03 06:53 METAR KLNS 031053Z 04006KT 6SM -RA BR OVC010 13/12 A2981 RMK AO2 SLP093 P0005
                 T01330122 =
2016-05-03 05:53 METAR KLNS 030953Z 08009KT 7SM -RA OVC012 13/13 A2981 RMK AO2 RAB38 SLP093 P0001
                 T01330128 =
2016-05-03 05:09 METAR KLNS 030909Z AUTO 06005KT 5SM BR OVC010 14/13 A2982 RMK AO2 T01390128 =
2016-05-03 04:53 METAR KLNS 030853Z AUTO 06007KT 5SM BR OVC009 13/13 A2982 RMK AO2 RAE28 CIG
                 006V012 SLP095 P0000 60006 T01330128 56010 =
2016-05-03 03:53 METAR KLNS 030753Z AUTO 05004KT 3SM -RA BR OVC008 14/13 A2982 RMK AO2 CIG
                 006V011 SLP095 P0004 T01390133 =
2016-05-03 02:53 METAR KLNS 030653Z AUTO 08004KT 5SM -RA BR BKN006 BKN010 OVC022 14/13 A2983 RMK
                 AO2 CIG 004V008 SLP101 P0002 T01390133 =
2016-05-03 02:25 METAR KLNS 030625Z AUTO 09008KT 3SM -RA BR BKN004 BKN011 OVC031 14/13 A2982 RMK
                 AO2 P0002 T01390133 =
2016-05-03 02:09 METAR KLNS 030609Z AUTO 11006KT 2 1/2SM -RA BR BKN005 BKN027 OVC060 14/14 A2983
                 RMK AO2 P0001 T01390139 =
2016-05-03 01:53 METAR KLNS 030553Z AUTO 13004KT 3SM RA BR OVC006 14/13 A2985 RMK AO2 SLP106
                 P0010 60201 T01390133 10167 20139 58009 =
2016-05-03 01:10 METAR KLNS 030510Z AUTO 10005KT 4SM RA BR BKN008 BKN024 OVC060 14/14 A2987 RMK
                 AO2 P0001 T01390139 =
2016-05-03 01:05 METAR KLNS 030505Z AUTO 10006KT 4SM -RA BR SCT010 BKN024 OVC060 14/13 A2986 RMK
                 AO2 P0001 T01390133 =
2016-05-03 00:53 METAR KLNS 030453Z AUTO 10007KT 6SM -RA BR SCT024 OVC060 14/14 A2987 RMK AO2
                 SLP114 P0001 T01440139 401940089 =
2016-05-02 23:53 METAR KLNS 030353Z AUTO 09009KT 3SM -RA BR SCT003 BKN036 OVC047 14/14 A2987 RMK
                 AO2 SLP115 P0037 T01440139 =
2016-05-02 23:49 METAR KLNS 030349Z AUTO 09008KT 3SM -RA BR SCT003 BKN036 OVC050 14/14 A2987 RMK
                 AO2 P0037 =
2016-05-02 23:27 METAR KLNS 030327Z AUTO 10011KT 2SM RA BR FEW008 BKN040 OVC050 14/14 A2989 RMK
                 AO2 PRESFR P0034 T01440139 =
2016-05-02 23:19 METAR KLNS 030319Z AUTO 09006KT 2SM +RA BR SCT021 BKN036 OVC044 14/14 A2991 RMK
                 AO2 P0031 T01440144 =
2016-05-02 23:01 METAR KLNS 030301Z AUTO 12007KT 1SM +RA BR FEW004 FEW017 OVC021 14/14 A2992 RMK
                 AO2 LTG DSNT NE AND E P0017 T01440144 =
2016-05-02 22:53 METAR KLNS 030253Z AUTO 13007KT 3/4SM VCTS +RA BR FEW005 OVC019 14/14 A2992 RMK
                 AO2 LTG DSNT NE-SE TSB0158E47 SLP133 P0149 60153 T01440144 53017 =
2016-05-02 22:41 METAR KLNS 030241Z AUTO 10003KT 1 1/4SM +TSRA BR OVC025 14/14 A2991 RMK AO2 LTG
                 DSNT ALQDS TSB0158 P0101 T01440144 =
2016-05-02 22:24 METAR KLNS 030224Z VRB03KT 3/4SM +TSRA BR OVC022 14/14 A2992 RMK AO2 LTG DSNT
                 ALQDS TSB0158 P0053 T01440139 =
2016-05-02 22:03 METAR KLNS 030203Z 08008KT 2 1/2SM +TSRA BR BKN026 OVC031 15/14 A2988 RMK AO2
                 LTG DSNT ALQDS TSB0158 P0005 T01500139 =
2016-05-02 22:01 METAR KLNS 030201Z 08007KT 3SM TSRA BR SCT026 BKN031 OVC100 15/14 A2988 RMK AO2
                 LTG DSNT ALQDS TSB0158 P0003 T01500139 =
2016-05-02 21:53 METAR KLNS 030153Z 07008KT 5SM VCTS -RA BR BKN031 BKN045 OVC110 15/14 A2988 RMK
                 AO2 LTG DSNT ALQDS RAE10B19 SLP117 P0002 T01500139 =
2016-05-02 21:46 METAR KLNS 030146Z 10009KT 5SM VCTS -RA BR SCT031 BKN050 OVC110 15/14 A2988 RMK
                 AO2 LTG DSNT ALQDS RAE10B19 P0002 T01500139 =
2016-05-02 21:33 METAR KLNS 030133Z 07008KT 5SM -RA BR FEW047 SCT100 OVC110 15/14 A2987 RMK AO2
                 LTG DSNT ALQDS RAE10B19 P0001 T01500139 =
2016-05-02 21:13 METAR KLNS 030113Z 12007KT 7SM VCTS FEW019 SCT027 BKN090 15/14 A2988 RMK AO2 LTG
                 DSNT NE AND E RAE10 P0001 T01500139 =
2016-05-02 21:11 METAR KLNS 030111Z 12008KT 7SM FEW019 BKN027 BKN120 16/14 A2988 RMK AO2 LTG DSNT
                 NE AND E RAE10 P0001 T01560139 =
2016-05-02 20:53 METAR KLNS 030053Z 08007KT 5SM VCTS RA BR SCT019 OVC027 16/14 A2988 RMK AO2 LTG
                 DSNT NE AND E RAB46 SLP119 P0002 T01560139 =
2016-05-02 20:49 METAR KLNS 030049Z 07008KT 6SM VCTS -RA BR BKN019 OVC027 16/14 A2987 RMK AO2 LTG
                 DSNT E RAB46 P0001 =
2016-05-02 20:21 METAR KLNS 030021Z 10005KT 8SM BKN019 BKN034 OVC055 17/14 A2988 RMK AO2
                 T01670139 =
2016-05-02 19:53 METAR KLNS 022353Z 06009KT 6SM HZ SCT016 BKN040 OVC055 17/14 A2987 RMK AO2 LTG
                 DSNT SW SLP116 T01670139 10194 20139 53000 =
2016-05-02 19:25 METAR KLNS 022325Z 09006KT 6SM BR FEW018 SCT025 OVC048 18/16 A2988 RMK AO2
                 T01780156 =
2016-05-02 18:53 METAR KLNS 022253Z 08008KT 7SM BKN018 18/16 A2986 RMK AO2 SLP111 T01830156 =
2016-05-02 18:32 METAR KLNS 022232Z 07006KT 6SM HZ BKN019 19/16 A2987 RMK AO2 T01890156 =
2016-05-02 18:24 METAR KLNS 022224Z 06007KT 6SM HZ SCT019 19/16 A2987 RMK AO2 T01890156 =
2016-05-02 18:02 METAR KLNS 022202Z 07007KT 6SM HZ BKN019 19/16 A2987 RMK AO2 T01940156 =
2016-05-02 17:53 METAR KLNS 022153Z 07007KT 6SM HZ SCT019 19/16 A2986 RMK AO2 SLP113 T01890156 =
2016-05-02 17:42 METAR KLNS 022142Z 09006KT 6SM HZ BKN019 19/16 A2987 RMK AO2 T01890156 =
2016-05-02 16:53 METAR KLNS 022053Z 08004KT 7SM FEW016 19/16 A2987 RMK AO2 SLP115 T01940156 56017
                 =

Support USWX by starting your Amazon purchase here.